createdAt,value
2023-03-29T00:00:36.414Z,9.20
2023-03-29T00:05:57.889Z,8.40
2023-03-29T00:11:02.061Z,9.20
2023-03-29T00:16:06.516Z,9.00
2023-03-29T00:21:10.695Z,7.80
2023-03-29T00:26:14.265Z,7.30
2023-03-29T00:31:18.961Z,8.30
2023-03-29T00:36:23.704Z,8.20
2023-03-29T00:41:27.545Z,12.20
2023-03-29T00:46:32.621Z,10.80
2023-03-29T00:51:41.700Z,8.00
2023-03-29T00:56:50.354Z,7.30
2023-03-29T01:02:03.705Z,6.20
2023-03-29T01:07:31.254Z,6.10
2023-03-29T01:12:47.202Z,6.00
2023-03-29T01:17:53.993Z,7.10
2023-03-29T01:23:40.610Z,8.00
2023-03-29T01:29:22.565Z,8.30
2023-03-29T01:34:51.988Z,11.30
2023-03-29T01:39:55.670Z,10.10
2023-03-29T01:45:20.274Z,10.00
2023-03-29T01:50:44.683Z,11.10
2023-03-29T01:55:57.278Z,9.70
2023-03-29T02:01:10.224Z,13.00
2023-03-29T02:06:21.740Z,10.30
2023-03-29T02:11:29.669Z,6.60
2023-03-29T02:16:39.378Z,6.40
2023-03-29T02:22:02.248Z,6.90
2023-03-29T02:27:06.370Z,8.10
2023-03-29T02:32:21.696Z,10.50
2023-03-29T02:37:30.577Z,9.20
2023-03-29T02:47:47.760Z,5.60
2023-03-29T02:53:02.057Z,5.20
2023-03-29T02:58:08.801Z,5.60
2023-03-29T03:03:15.893Z,5.70
2023-03-29T03:08:20.219Z,4.50
2023-03-29T03:13:23.765Z,4.90
2023-03-29T03:18:28.153Z,4.50
2023-03-29T03:23:32.327Z,4.90
2023-03-29T03:28:35.933Z,4.70
2023-03-29T03:33:41.406Z,5.30
2023-03-29T03:38:45.585Z,7.10
2023-03-29T03:43:49.410Z,4.90
2023-03-29T03:48:53.095Z,6.10
2023-03-29T03:53:56.650Z,8.80
2023-03-29T03:59:00.202Z,8.00
2023-03-29T04:04:04.907Z,8.00
2023-03-29T04:09:09.742Z,7.30
2023-03-29T04:14:13.297Z,19.10
2023-03-29T04:19:17.191Z,13.00
2023-03-29T04:24:20.928Z,15.30
2023-03-29T04:29:24.613Z,12.80
2023-03-29T04:34:28.357Z,12.20
2023-03-29T04:39:34.387Z,13.50
2023-03-29T04:44:41.806Z,12.60
2023-03-29T04:49:46.202Z,62.00
2023-03-29T04:54:50.145Z,64.70
2023-03-29T04:59:54.174Z,20.60
2023-03-29T05:04:59.885Z,93.90
2023-03-29T05:10:08.464Z,49.30
2023-03-29T05:15:13.946Z,46.20
2023-03-29T05:20:19.034Z,25.50
2023-03-29T05:25:23.617Z,31.40
2023-03-29T05:30:27.237Z,31.60
2023-03-29T05:35:32.418Z,10.00
2023-03-29T05:40:36.221Z,5.00
2023-03-29T05:45:39.918Z,22.80
2023-03-29T05:50:52.643Z,9.50
2023-03-29T05:55:56.550Z,8.70
2023-03-29T06:01:00.909Z,8.80
2023-03-29T06:06:05.722Z,7.30
2023-03-29T06:11:13.663Z,6.30
2023-03-29T06:16:17.315Z,14.40
2023-03-29T06:21:22.336Z,7.70
2023-03-29T06:26:28.437Z,8.10
2023-03-29T06:31:32.331Z,7.50
2023-03-29T06:36:36.000Z,7.90
2023-03-29T06:41:39.813Z,12.00
2023-03-29T06:46:44.289Z,15.90
2023-03-29T06:51:49.206Z,13.10
2023-03-29T06:56:55.117Z,9.70
2023-03-29T07:01:59.058Z,15.40
2023-03-29T07:07:03.938Z,15.90
2023-03-29T07:12:09.289Z,19.40
2023-03-29T07:17:13.723Z,5.90
2023-03-29T07:22:17.416Z,12.40
2023-03-29T07:27:21.167Z,6.80
2023-03-29T07:32:25.084Z,9.10
2023-03-29T07:37:28.795Z,7.40
2023-03-29T07:42:32.423Z,8.10
2023-03-29T07:47:36.727Z,11.80
2023-03-29T07:52:41.226Z,4.70
2023-03-29T07:57:45.109Z,6.60
2023-03-29T08:02:52.789Z,16.20
2023-03-29T08:07:56.771Z,7.50
2023-03-29T08:13:01.389Z,6.60
2023-03-29T08:18:07.765Z,7.70
2023-03-29T08:23:11.740Z,11.10
2023-03-29T08:28:15.386Z,6.20
2023-03-29T08:33:19.721Z,20.90
2023-03-29T08:38:23.429Z,8.80
2023-03-29T08:43:51.898Z,10.50
2023-03-29T08:49:03.293Z,15.20
2023-03-29T08:54:17.561Z,5.50
2023-03-29T08:59:30.156Z,8.80
2023-03-29T09:04:36.872Z,5.00
2023-03-29T09:09:43.158Z,3.00
2023-03-29T09:15:11.966Z,3.10
2023-03-29T09:20:37.732Z,3.10
2023-03-29T09:26:10.383Z,2.80
2023-03-29T09:31:23.245Z,2.90
2023-03-29T09:36:46.808Z,2.60
2023-03-29T09:42:00.127Z,4.10
2023-03-29T09:47:17.617Z,3.10
2023-03-29T09:52:21.784Z,3.00
2023-03-29T09:57:27.729Z,2.90
2023-03-29T10:02:32.838Z,3.10
2023-03-29T10:07:46.653Z,4.60
2023-03-29T10:12:57.258Z,2.80
2023-03-29T10:18:12.132Z,2.70
2023-03-29T10:23:19.089Z,2.10
2023-03-29T10:28:23.341Z,2.90
2023-03-29T10:33:33.499Z,3.10
2023-03-29T10:38:38.515Z,2.40
2023-03-29T10:43:51.246Z,2.50
2023-03-29T10:49:10.742Z,3.90
2023-03-29T10:54:20.699Z,2.10
2023-03-29T10:59:28.832Z,4.80
2023-03-29T11:05:31.337Z,2.70
2023-03-29T11:11:01.154Z,2.30
2023-03-29T11:16:29.095Z,3.50
2023-03-29T11:22:05.791Z,2.60
2023-03-29T11:27:51.544Z,2.80
2023-03-29T11:33:46.463Z,3.10
2023-03-29T11:39:45.405Z,2.90
2023-03-29T11:44:55.213Z,2.60
2023-03-29T11:50:28.980Z,1.60
2023-03-29T11:55:38.415Z,2.20
2023-03-29T12:01:04.690Z,1.50
2023-03-29T12:06:15.843Z,4.90
2023-03-29T12:11:49.178Z,2.50
2023-03-29T12:17:05.715Z,2.20
2023-03-29T12:22:10.120Z,2.70
2023-03-29T12:27:47.789Z,2.30
2023-03-29T12:33:03.509Z,2.10
2023-03-29T12:38:37.740Z,2.20
2023-03-29T12:43:43.817Z,4.50
2023-03-29T12:48:58.115Z,10.40
2023-03-29T12:54:16.225Z,9.50
2023-03-29T12:59:45.489Z,2.20
2023-03-29T13:05:00.590Z,3.40
2023-03-29T13:10:38.282Z,4.70
2023-03-29T13:15:45.343Z,4.80
2023-03-29T13:21:30.193Z,5.20
2023-03-29T13:27:15.748Z,4.30
2023-03-29T13:32:41.580Z,3.70
2023-03-29T13:38:07.611Z,6.50
2023-03-29T13:43:31.397Z,7.40
2023-03-29T13:48:38.012Z,8.40
2023-03-29T13:53:52.111Z,5.00
2023-03-29T13:59:25.843Z,6.80
2023-03-29T14:04:49.344Z,17.60
2023-03-29T14:09:57.230Z,13.90
2023-03-29T14:15:07.082Z,2.90
2023-03-29T14:20:16.434Z,4.10
2023-03-29T14:25:23.320Z,6.80
2023-03-29T14:30:29.810Z,4.70
2023-03-29T14:35:33.971Z,4.50
2023-03-29T14:40:38.884Z,25.40
2023-03-29T14:45:42.917Z,29.10
2023-03-29T14:50:47.871Z,8.30
2023-03-29T14:55:53.950Z,24.80
2023-03-29T15:00:58.358Z,21.80
2023-03-29T15:06:05.253Z,14.40
2023-03-29T15:11:27.887Z,23.60
2023-03-29T15:16:33.187Z,30.00
2023-03-29T15:21:37.100Z,30.30
2023-03-29T15:26:41.417Z,34.80
2023-03-29T15:31:59.384Z,35.20
2023-03-29T15:37:04.635Z,24.40
2023-03-29T15:42:10.172Z,25.80
2023-03-29T15:47:14.132Z,26.80
2023-03-29T15:52:18.086Z,20.10
2023-03-29T15:57:22.326Z,12.70
2023-03-29T16:02:26.348Z,11.50
2023-03-29T16:07:30.493Z,18.20
2023-03-29T16:12:36.101Z,20.20
2023-03-29T16:17:39.944Z,32.50
2023-03-29T16:22:43.977Z,52.70
2023-03-29T16:27:47.625Z,72.60
2023-03-29T16:32:52.075Z,48.50
2023-03-29T16:37:56.268Z,61.40
2023-03-29T16:43:00.500Z,49.80
2023-03-29T16:48:05.600Z,32.70
2023-03-29T16:53:10.660Z,37.10
2023-03-29T16:58:15.781Z,71.80
2023-03-29T17:03:20.428Z,66.70
2023-03-29T17:08:24.197Z,52.70
2023-03-29T17:13:28.449Z,47.90
2023-03-29T17:18:32.346Z,40.40
2023-03-29T17:23:36.545Z,63.10
2023-03-29T17:28:41.296Z,63.60
2023-03-29T17:33:45.693Z,54.30
2023-03-29T17:38:51.316Z,42.70
2023-03-29T17:43:54.843Z,223.80
2023-03-29T17:49:01.830Z,47.40
2023-03-29T17:54:06.540Z,30.90
2023-03-29T17:59:12.880Z,35.30
2023-03-29T18:04:17.273Z,36.30
2023-03-29T18:09:21.274Z,25.00
2023-03-29T18:14:25.083Z,16.00
2023-03-29T18:19:29.221Z,21.20
2023-03-29T18:24:34.126Z,20.00
2023-03-29T18:29:38.250Z,19.00
2023-03-29T18:34:41.798Z,16.40
2023-03-29T18:39:51.958Z,25.60
2023-03-29T18:44:56.245Z,17.80
2023-03-29T18:50:04.668Z,17.60
2023-03-29T18:55:24.474Z,26.30
2023-03-29T19:01:04.123Z,14.70
2023-03-29T19:10:45.270Z,7.00
2023-03-29T19:15:52.253Z,11.50
2023-03-29T19:20:59.502Z,10.10
2023-03-29T19:26:14.127Z,8.20
2023-03-29T19:31:21.006Z,10.70
2023-03-29T19:36:25.113Z,12.50
2023-03-29T19:41:29.136Z,13.00
2023-03-29T19:46:33.616Z,9.20
2023-03-29T19:51:39.857Z,11.90
2023-03-29T19:56:44.519Z,13.20
2023-03-29T20:01:51.250Z,18.30
2023-03-29T20:06:55.499Z,19.50
2023-03-29T20:12:00.243Z,32.20
2023-03-29T20:17:04.828Z,65.10
2023-03-29T20:22:09.042Z,91.30
2023-03-29T20:27:12.674Z,57.90
2023-03-29T20:32:16.620Z,50.30
2023-03-29T20:37:23.324Z,69.90
2023-03-29T20:42:28.974Z,48.70
2023-03-29T20:47:42.916Z,33.50
2023-03-29T20:52:47.650Z,23.70
2023-03-29T20:58:06.751Z,16.30
2023-03-29T21:03:11.521Z,12.60
2023-03-29T21:08:17.925Z,12.60
2023-03-29T21:13:21.941Z,9.90
2023-03-29T21:18:25.673Z,8.20
2023-03-29T21:23:29.197Z,9.70
2023-03-29T21:28:33.359Z,9.80
2023-03-29T21:33:37.047Z,10.90
2023-03-29T21:38:40.779Z,10.20
2023-03-29T21:43:44.667Z,13.90
2023-03-29T21:48:48.273Z,19.70
2023-03-29T21:53:52.041Z,17.00
2023-03-29T21:58:56.117Z,15.90
2023-03-29T22:03:59.754Z,14.10
2023-03-29T22:09:03.665Z,12.00
2023-03-29T22:14:08.661Z,12.80
2023-03-29T22:19:13.213Z,8.90
2023-03-29T22:24:17.564Z,9.10
2023-03-29T22:29:21.196Z,12.50
2023-03-29T22:34:25.303Z,15.30
2023-03-29T22:39:30.151Z,7.10
2023-03-29T22:44:34.397Z,7.60
2023-03-29T22:49:37.942Z,11.60
2023-03-29T22:54:41.587Z,5.80
2023-03-29T22:59:45.221Z,9.00
2023-03-29T23:04:49.380Z,9.20
2023-03-29T23:09:53.156Z,12.70
2023-03-29T23:14:57.318Z,9.70
2023-03-29T23:20:02.309Z,7.80
2023-03-29T23:25:06.729Z,7.80
2023-03-29T23:30:12.114Z,12.50
2023-03-29T23:35:16.776Z,7.90
2023-03-29T23:40:21.157Z,8.00
2023-03-29T23:45:26.975Z,8.60
2023-03-29T23:50:30.653Z,8.40
2023-03-29T23:55:34.632Z,8.60
